sensor_id;sensor_type;location;lat;lon;timestamp;temperature;humidity
30047;DHT22;16878;52.542;13.426;2022-07-29T00:00:01;16.50;95.10
30047;DHT22;16878;52.542;13.426;2022-07-29T00:02:28;16.50;95.50
30047;DHT22;16878;52.542;13.426;2022-07-29T00:04:54;16.50;95.80
30047;DHT22;16878;52.542;13.426;2022-07-29T00:07:20;16.50;96.10
30047;DHT22;16878;52.542;13.426;2022-07-29T00:09:45;16.40;96.40
30047;DHT22;16878;52.542;13.426;2022-07-29T00:12:11;16.40;96.80
30047;DHT22;16878;52.542;13.426;2022-07-29T00:14:36;16.40;97.00
30047;DHT22;16878;52.542;13.426;2022-07-29T00:17:02;16.40;97.20
30047;DHT22;16878;52.542;13.426;2022-07-29T00:19:28;16.30;97.50
30047;DHT22;16878;52.542;13.426;2022-07-29T00:21:53;16.30;97.90
30047;DHT22;16878;52.542;13.426;2022-07-29T00:24:19;16.30;98.20
30047;DHT22;16878;52.542;13.426;2022-07-29T00:26:44;16.20;98.40
30047;DHT22;16878;52.542;13.426;2022-07-29T00:29:10;16.20;98.70
30047;DHT22;16878;52.542;13.426;2022-07-29T00:31:36;16.20;98.90
30047;DHT22;16878;52.542;13.426;2022-07-29T00:34:02;16.10;99.10
30047;DHT22;16878;52.542;13.426;2022-07-29T00:36:28;16.20;99.30
30047;DHT22;16878;52.542;13.426;2022-07-29T00:38:53;16.20;99.50
30047;DHT22;16878;52.542;13.426;2022-07-29T00:41:19;16.10;99.60
30047;DHT22;16878;52.542;13.426;2022-07-29T00:43:45;16.10;99.80
30047;DHT22;16878;52.542;13.426;2022-07-29T00:46:11;16.10;99.90
30047;DHT22;16878;52.542;13.426;2022-07-29T00:48:37;16.00;99.90
30047;DHT22;16878;52.542;13.426;2022-07-29T00:51:04;16.00;99.90
30047;DHT22;16878;52.542;13.426;2022-07-29T00:53:31;16.00;99.90
30047;DHT22;16878;52.542;13.426;2022-07-29T00:55:58;15.90;99.90
30047;DHT22;16878;52.542;13.426;2022-07-29T00:58:24;15.90;99.90
30047;DHT22;16878;52.542;13.426;2022-07-29T01:00:51;15.80;99.90
30047;DHT22;16878;52.542;13.426;2022-07-29T01:03:18;15.80;99.90
30047;DHT22;16878;52.542;13.426;2022-07-29T01:05:44;15.80;99.90
30047;DHT22;16878;52.542;13.426;2022-07-29T01:08:12;15.80;99.90
30047;DHT22;16878;52.542;13.426;2022-07-29T01:10:39;15.80;99.90
30047;DHT22;16878;52.542;13.426;2022-07-29T01:13:06;15.80;99.90
30047;DHT22;16878;52.542;13.426;2022-07-29T01:15:33;15.80;99.90
30047;DHT22;16878;52.542;13.426;2022-07-29T01:18:09;15.80;99.90
30047;DHT22;16878;52.542;13.426;2022-07-29T01:20:58;15.80;99.90
30047;DHT22;16878;52.542;13.426;2022-07-29T01:23:52;15.80;99.90
30047;DHT22;16878;52.542;13.426;2022-07-29T01:26:45;15.80;99.90
30047;DHT22;16878;52.542;13.426;2022-07-29T01:29:18;15.70;99.90
30047;DHT22;16878;52.542;13.426;2022-07-29T01:31:54;15.70;99.90
30047;DHT22;16878;52.542;13.426;2022-07-29T01:34:25;15.70;99.90
30047;DHT22;16878;52.542;13.426;2022-07-29T01:37:08;15.70;99.90
30047;DHT22;16878;52.542;13.426;2022-07-29T01:39:39;15.60;99.90
30047;DHT22;16878;52.542;13.426;2022-07-29T01:48:06;15.60;99.90
30047;DHT22;16878;52.542;13.426;2022-07-29T01:50:50;15.50;99.90
30047;DHT22;16878;52.542;13.426;2022-07-29T01:53:26;15.50;99.90
30047;DHT22;16878;52.542;13.426;2022-07-29T01:55:54;15.40;99.90
30047;DHT22;16878;52.542;13.426;2022-07-29T01:58:23;15.40;99.90
30047;DHT22;16878;52.542;13.426;2022-07-29T02:00:50;15.40;99.90
30047;DHT22;16878;52.542;13.426;2022-07-29T02:03:18;15.30;99.90
30047;DHT22;16878;52.542;13.426;2022-07-29T02:05:45;15.30;99.90
30047;DHT22;16878;52.542;13.426;2022-07-29T02:08:13;15.20;99.90
30047;DHT22;16878;52.542;13.426;2022-07-29T02:10:40;15.20;99.90
30047;DHT22;16878;52.542;13.426;2022-07-29T02:13:07;15.20;99.90
30047;DHT22;16878;52.542;13.426;2022-07-29T02:15:35;15.10;99.90
30047;DHT22;16878;52.542;13.426;2022-07-29T02:18:05;15.20;99.90
30047;DHT22;16878;52.542;13.426;2022-07-29T02:20:31;15.20;99.90
30047;DHT22;16878;52.542;13.426;2022-07-29T02:22:59;15.10;99.90
30047;DHT22;16878;52.542;13.426;2022-07-29T02:25:26;15.10;99.90
30047;DHT22;16878;52.542;13.426;2022-07-29T02:27:52;15.10;99.90
30047;DHT22;16878;52.542;13.426;2022-07-29T02:30:21;15.10;99.90
30047;DHT22;16878;52.542;13.426;2022-07-29T02:32:48;15.10;99.90
30047;DHT22;16878;52.542;13.426;2022-07-29T02:35:16;15.10;99.90
30047;DHT22;16878;52.542;13.426;2022-07-29T02:37:44;15.10;99.90
30047;DHT22;16878;52.542;13.426;2022-07-29T02:40:12;15.20;99.90
30047;DHT22;16878;52.542;13.426;2022-07-29T02:42:41;15.30;99.90
30047;DHT22;16878;52.542;13.426;2022-07-29T02:45:07;15.30;99.90
30047;DHT22;16878;52.542;13.426;2022-07-29T02:47:37;15.30;99.90
30047;DHT22;16878;52.542;13.426;2022-07-29T02:50:11;15.30;99.90
30047;DHT22;16878;52.542;13.426;2022-07-29T02:53:02;15.30;99.90
30047;DHT22;16878;52.542;13.426;2022-07-29T02:55:43;15.30;99.90
30047;DHT22;16878;52.542;13.426;2022-07-29T03:00:57;15.30;99.90
30047;DHT22;16878;52.542;13.426;2022-07-29T03:03:26;15.40;99.90
30047;DHT22;16878;52.542;13.426;2022-07-29T03:05:57;15.40;99.90
30047;DHT22;16878;52.542;13.426;2022-07-29T03:08:24;15.40;99.90
30047;DHT22;16878;52.542;13.426;2022-07-29T03:10:51;15.50;99.90
30047;DHT22;16878;52.542;13.426;2022-07-29T03:13:18;15.50;99.90
30047;DHT22;16878;52.542;13.426;2022-07-29T03:15:45;15.50;99.90
30047;DHT22;16878;52.542;13.426;2022-07-29T03:18:11;15.50;99.90
30047;DHT22;16878;52.542;13.426;2022-07-29T03:20:38;15.50;99.90
30047;DHT22;16878;52.542;13.426;2022-07-29T03:23:04;15.50;99.90
30047;DHT22;16878;52.542;13.426;2022-07-29T03:25:30;15.40;99.90
30047;DHT22;16878;52.542;13.426;2022-07-29T03:27:56;15.40;99.90
30047;DHT22;16878;52.542;13.426;2022-07-29T03:30:22;15.40;99.90
30047;DHT22;16878;52.542;13.426;2022-07-29T03:32:49;15.30;99.90
30047;DHT22;16878;52.542;13.426;2022-07-29T03:35:15;15.40;99.90
30047;DHT22;16878;52.542;13.426;2022-07-29T03:37:44;15.40;99.90
30047;DHT22;16878;52.542;13.426;2022-07-29T03:40:13;15.40;99.90
30047;DHT22;16878;52.542;13.426;2022-07-29T03:42:40;15.40;99.90
30047;DHT22;16878;52.542;13.426;2022-07-29T03:45:10;15.40;99.90
30047;DHT22;16878;52.542;13.426;2022-07-29T03:47:40;15.40;99.90
30047;DHT22;16878;52.542;13.426;2022-07-29T03:50:10;15.40;99.90
30047;DHT22;16878;52.542;13.426;2022-07-29T03:52:37;15.50;99.90
30047;DHT22;16878;52.542;13.426;2022-07-29T03:55:03;15.50;99.90
30047;DHT22;16878;52.542;13.426;2022-07-29T03:57:30;15.50;99.90
30047;DHT22;16878;52.542;13.426;2022-07-29T03:59:57;15.50;99.90
30047;DHT22;16878;52.542;13.426;2022-07-29T04:02:23;15.50;99.90
30047;DHT22;16878;52.542;13.426;2022-07-29T04:04:51;15.50;99.90
30047;DHT22;16878;52.542;13.426;2022-07-29T04:07:17;15.50;99.90
30047;DHT22;16878;52.542;13.426;2022-07-29T04:09:43;15.50;99.90
30047;DHT22;16878;52.542;13.426;2022-07-29T04:12:09;15.60;99.90
30047;DHT22;16878;52.542;13.426;2022-07-29T04:14:35;15.60;99.90
30047;DHT22;16878;52.542;13.426;2022-07-29T04:17:02;15.70;99.90
30047;DHT22;16878;52.542;13.426;2022-07-29T04:19:28;15.80;99.90
30047;DHT22;16878;52.542;13.426;2022-07-29T04:21:55;15.80;99.90
30047;DHT22;16878;52.542;13.426;2022-07-29T04:24:20;15.90;99.90
30047;DHT22;16878;52.542;13.426;2022-07-29T04:26:47;15.90;99.90
30047;DHT22;16878;52.542;13.426;2022-07-29T04:29:13;16.00;99.90
30047;DHT22;16878;52.542;13.426;2022-07-29T04:31:40;16.10;99.90
30047;DHT22;16878;52.542;13.426;2022-07-29T04:34:06;16.10;99.90
30047;DHT22;16878;52.542;13.426;2022-07-29T04:36:31;16.30;99.90
30047;DHT22;16878;52.542;13.426;2022-07-29T04:38:57;16.40;99.90
30047;DHT22;16878;52.542;13.426;2022-07-29T04:41:23;16.60;99.90
30047;DHT22;16878;52.542;13.426;2022-07-29T04:43:48;16.70;99.90
30047;DHT22;16878;52.542;13.426;2022-07-29T04:46:14;16.90;99.90
30047;DHT22;16878;52.542;13.426;2022-07-29T04:48:40;17.00;99.90
30047;DHT22;16878;52.542;13.426;2022-07-29T04:51:05;17.20;99.90
30047;DHT22;16878;52.542;13.426;2022-07-29T04:53:31;17.30;99.90
30047;DHT22;16878;52.542;13.426;2022-07-29T04:55:57;17.40;99.90
30047;DHT22;16878;52.542;13.426;2022-07-29T04:58:22;17.40;99.90
30047;DHT22;16878;52.542;13.426;2022-07-29T05:00:49;17.20;99.90
30047;DHT22;16878;52.542;13.426;2022-07-29T05:03:15;17.10;99.90
30047;DHT22;16878;52.542;13.426;2022-07-29T05:05:40;17.00;99.90
30047;DHT22;16878;52.542;13.426;2022-07-29T05:08:06;16.90;99.90
30047;DHT22;16878;52.542;13.426;2022-07-29T05:10:32;16.90;99.90
30047;DHT22;16878;52.542;13.426;2022-07-29T05:12:59;17.00;99.90
30047;DHT22;16878;52.542;13.426;2022-07-29T05:15:24;17.20;99.90
30047;DHT22;16878;52.542;13.426;2022-07-29T05:17:50;17.40;99.90
30047;DHT22;16878;52.542;13.426;2022-07-29T05:20:16;17.70;99.50
30047;DHT22;16878;52.542;13.426;2022-07-29T05:22:42;17.90;98.90
30047;DHT22;16878;52.542;13.426;2022-07-29T05:25:07;18.00;98.40
30047;DHT22;16878;52.542;13.426;2022-07-29T05:27:35;18.10;98.00
30047;DHT22;16878;52.542;13.426;2022-07-29T05:30:01;18.20;97.70
30047;DHT22;16878;52.542;13.426;2022-07-29T05:32:26;18.20;97.50
30047;DHT22;16878;52.542;13.426;2022-07-29T05:34:52;18.10;97.70
30047;DHT22;16878;52.542;13.426;2022-07-29T05:37:21;18.10;97.80
30047;DHT22;16878;52.542;13.426;2022-07-29T05:39:47;18.30;97.20
30047;DHT22;16878;52.542;13.426;2022-07-29T05:42:12;18.10;97.30
30047;DHT22;16878;52.542;13.426;2022-07-29T05:44:38;17.80;97.70
30047;DHT22;16878;52.542;13.426;2022-07-29T05:47:05;17.60;98.30
30047;DHT22;16878;52.542;13.426;2022-07-29T05:49:32;17.40;98.80
30047;DHT22;16878;52.542;13.426;2022-07-29T05:51:57;17.30;99.20
30047;DHT22;16878;52.542;13.426;2022-07-29T05:54:23;17.20;99.40
30047;DHT22;16878;52.542;13.426;2022-07-29T05:56:49;17.30;99.60
30047;DHT22;16878;52.542;13.426;2022-07-29T05:59:15;17.30;99.40
30047;DHT22;16878;52.542;13.426;2022-07-29T06:01:40;17.40;99.30
30047;DHT22;16878;52.542;13.426;2022-07-29T06:04:07;17.50;99.00
30047;DHT22;16878;52.542;13.426;2022-07-29T06:06:33;17.80;98.70
30047;DHT22;16878;52.542;13.426;2022-07-29T06:09:00;18.10;97.90
30047;DHT22;16878;52.542;13.426;2022-07-29T06:11:26;18.40;97.30
30047;DHT22;16878;52.542;13.426;2022-07-29T06:13:52;18.60;96.30
30047;DHT22;16878;52.542;13.426;2022-07-29T06:16:18;18.70;96.00
30047;DHT22;16878;52.542;13.426;2022-07-29T06:18:44;19.20;95.30
30047;DHT22;16878;52.542;13.426;2022-07-29T06:21:10;20.20;93.70
30047;DHT22;16878;52.542;13.426;2022-07-29T06:23:36;22.80;88.90
30047;DHT22;16878;52.542;13.426;2022-07-29T06:26:02;26.10;75.40
30047;DHT22;16878;52.542;13.426;2022-07-29T06:28:28;28.10;66.00
30047;DHT22;16878;52.542;13.426;2022-07-29T06:30:54;26.90;64.40
30047;DHT22;16878;52.542;13.426;2022-07-29T06:33:19;25.10;67.10
30047;DHT22;16878;52.542;13.426;2022-07-29T06:38:13;24.70;68.50
30047;DHT22;16878;52.542;13.426;2022-07-29T06:40:45;22.80;73.20
30047;DHT22;16878;52.542;13.426;2022-07-29T06:43:37;22.40;75.50
30047;DHT22;16878;52.542;13.426;2022-07-29T06:46:07;21.40;77.70
30047;DHT22;16878;52.542;13.426;2022-07-29T06:48:34;20.90;80.00
30047;DHT22;16878;52.542;13.426;2022-07-29T06:51:00;20.30;82.50
30047;DHT22;16878;52.542;13.426;2022-07-29T06:53:26;20.00;84.30
30047;DHT22;16878;52.542;13.426;2022-07-29T06:55:52;20.00;85.40
30047;DHT22;16878;52.542;13.426;2022-07-29T06:58:17;20.10;86.00
30047;DHT22;16878;52.542;13.426;2022-07-29T07:00:48;20.20;85.30
30047;DHT22;16878;52.542;13.426;2022-07-29T07:03:15;20.30;85.80
30047;DHT22;16878;52.542;13.426;2022-07-29T07:05:41;20.30;85.50
30047;DHT22;16878;52.542;13.426;2022-07-29T07:08:06;20.40;85.70
30047;DHT22;16878;52.542;13.426;2022-07-29T07:10:33;20.50;86.00
30047;DHT22;16878;52.542;13.426;2022-07-29T07:12:59;20.80;84.70
30047;DHT22;16878;52.542;13.426;2022-07-29T07:15:28;21.00;83.20
30047;DHT22;16878;52.542;13.426;2022-07-29T07:17:54;21.60;81.70
30047;DHT22;16878;52.542;13.426;2022-07-29T07:20:19;22.10;79.90
30047;DHT22;16878;52.542;13.426;2022-07-29T07:22:45;22.40;78.50
30047;DHT22;16878;52.542;13.426;2022-07-29T07:25:11;22.30;77.80
30047;DHT22;16878;52.542;13.426;2022-07-29T07:27:37;22.10;78.00
30047;DHT22;16878;52.542;13.426;2022-07-29T07:30:04;22.00;78.00
30047;DHT22;16878;52.542;13.426;2022-07-29T07:32:34;21.90;78.70
30047;DHT22;16878;52.542;13.426;2022-07-29T07:34:59;21.80;79.10
30047;DHT22;16878;52.542;13.426;2022-07-29T07:37:26;21.70;79.30
30047;DHT22;16878;52.542;13.426;2022-07-29T07:39:52;21.70;78.80
30047;DHT22;16878;52.542;13.426;2022-07-29T07:42:18;21.70;78.80
30047;DHT22;16878;52.542;13.426;2022-07-29T07:44:44;21.70;78.60
30047;DHT22;16878;52.542;13.426;2022-07-29T07:47:11;21.60;79.20
30047;DHT22;16878;52.542;13.426;2022-07-29T07:49:37;21.50;78.70
30047;DHT22;16878;52.542;13.426;2022-07-29T07:52:03;21.40;79.40
30047;DHT22;16878;52.542;13.426;2022-07-29T07:54:28;21.40;79.20
30047;DHT22;16878;52.542;13.426;2022-07-29T07:56:54;21.50;79.20
30047;DHT22;16878;52.542;13.426;2022-07-29T07:59:20;21.50;79.70
30047;DHT22;16878;52.542;13.426;2022-07-29T08:01:45;21.50;78.20
30047;DHT22;16878;52.542;13.426;2022-07-29T08:04:11;21.50;77.10
30047;DHT22;16878;52.542;13.426;2022-07-29T08:06:37;21.50;76.70
30047;DHT22;16878;52.542;13.426;2022-07-29T08:09:05;21.50;77.60
30047;DHT22;16878;52.542;13.426;2022-07-29T08:11:31;21.60;77.40
30047;DHT22;16878;52.542;13.426;2022-07-29T08:13:57;21.60;77.60
30047;DHT22;16878;52.542;13.426;2022-07-29T08:16:23;21.70;76.70
30047;DHT22;16878;52.542;13.426;2022-07-29T08:18:50;21.90;76.70
30047;DHT22;16878;52.542;13.426;2022-07-29T08:21:17;22.10;74.20
30047;DHT22;16878;52.542;13.426;2022-07-29T08:23:45;22.20;73.70
30047;DHT22;16878;52.542;13.426;2022-07-29T08:26:15;22.30;73.80
30047;DHT22;16878;52.542;13.426;2022-07-29T08:28:42;22.40;73.50
30047;DHT22;16878;52.542;13.426;2022-07-29T08:31:11;22.70;72.40
30047;DHT22;16878;52.542;13.426;2022-07-29T08:33:37;22.60;72.90
30047;DHT22;16878;52.542;13.426;2022-07-29T08:36:03;22.70;71.90
30047;DHT22;16878;52.542;13.426;2022-07-29T08:38:29;22.80;71.10
30047;DHT22;16878;52.542;13.426;2022-07-29T08:40:54;22.80;71.00
30047;DHT22;16878;52.542;13.426;2022-07-29T08:43:20;23.00;70.30
30047;DHT22;16878;52.542;13.426;2022-07-29T08:45:49;22.90;69.80
30047;DHT22;16878;52.542;13.426;2022-07-29T08:48:16;22.90;69.70
30047;DHT22;16878;52.542;13.426;2022-07-29T08:50:43;23.00;69.80
30047;DHT22;16878;52.542;13.426;2022-07-29T08:53:13;23.10;68.00
30047;DHT22;16878;52.542;13.426;2022-07-29T08:55:45;23.20;66.70
30047;DHT22;16878;52.542;13.426;2022-07-29T08:58:13;23.30;66.80
30047;DHT22;16878;52.542;13.426;2022-07-29T09:00:42;23.30;66.50
30047;DHT22;16878;52.542;13.426;2022-07-29T09:03:09;23.30;66.40
30047;DHT22;16878;52.542;13.426;2022-07-29T09:05:37;23.20;66.60
30047;DHT22;16878;52.542;13.426;2022-07-29T09:08:06;23.20;66.30
30047;DHT22;16878;52.542;13.426;2022-07-29T09:10:32;23.20;66.60
30047;DHT22;16878;52.542;13.426;2022-07-29T09:12:58;23.40;66.90
30047;DHT22;16878;52.542;13.426;2022-07-29T09:15:24;23.50;66.60
30047;DHT22;16878;52.542;13.426;2022-07-29T09:17:50;23.70;65.00
30047;DHT22;16878;52.542;13.426;2022-07-29T09:20:18;23.80;65.00
30047;DHT22;16878;52.542;13.426;2022-07-29T09:22:44;24.00;64.40
30047;DHT22;16878;52.542;13.426;2022-07-29T09:25:14;24.00;64.30
30047;DHT22;16878;52.542;13.426;2022-07-29T09:27:40;24.00;63.90
30047;DHT22;16878;52.542;13.426;2022-07-29T09:30:08;23.80;64.20
30047;DHT22;16878;52.542;13.426;2022-07-29T09:32:55;23.70;64.20
30047;DHT22;16878;52.542;13.426;2022-07-29T09:35:23;23.60;64.30
30047;DHT22;16878;52.542;13.426;2022-07-29T09:37:49;23.70;64.20
30047;DHT22;16878;52.542;13.426;2022-07-29T09:40:17;23.90;63.70
30047;DHT22;16878;52.542;13.426;2022-07-29T09:42:44;24.10;62.50
30047;DHT22;16878;52.542;13.426;2022-07-29T09:45:10;24.40;62.40
30047;DHT22;16878;52.542;13.426;2022-07-29T09:47:47;24.50;61.20
30047;DHT22;16878;52.542;13.426;2022-07-29T09:50:15;24.50;60.60
30047;DHT22;16878;52.542;13.426;2022-07-29T09:52:53;24.50;60.70
30047;DHT22;16878;52.542;13.426;2022-07-29T09:55:19;24.60;60.40
30047;DHT22;16878;52.542;13.426;2022-07-29T09:57:46;24.70;60.30
30047;DHT22;16878;52.542;13.426;2022-07-29T10:00:17;24.90;60.30
30047;DHT22;16878;52.542;13.426;2022-07-29T10:02:45;25.10;60.10
30047;DHT22;16878;52.542;13.426;2022-07-29T10:05:21;25.30;59.40
30047;DHT22;16878;52.542;13.426;2022-07-29T10:10:22;25.50;58.00
30047;DHT22;16878;52.542;13.426;2022-07-29T10:12:50;25.80;57.60
30047;DHT22;16878;52.542;13.426;2022-07-29T10:15:16;26.00;56.50
30047;DHT22;16878;52.542;13.426;2022-07-29T10:17:44;26.00;56.40
30047;DHT22;16878;52.542;13.426;2022-07-29T10:20:10;25.70;55.40
30047;DHT22;16878;52.542;13.426;2022-07-29T10:22:36;25.40;55.50
30047;DHT22;16878;52.542;13.426;2022-07-29T10:25:02;25.40;56.30
30047;DHT22;16878;52.542;13.426;2022-07-29T10:27:28;25.20;56.80
30047;DHT22;16878;52.542;13.426;2022-07-29T10:29:54;25.00;55.50
30047;DHT22;16878;52.542;13.426;2022-07-29T10:35:21;25.00;55.30
30047;DHT22;16878;52.542;13.426;2022-07-29T10:38:11;25.00;54.90
30047;DHT22;16878;52.542;13.426;2022-07-29T10:41:50;25.10;54.10
30047;DHT22;16878;52.542;13.426;2022-07-29T10:44:17;25.00;53.70
30047;DHT22;16878;52.542;13.426;2022-07-29T10:46:44;24.90;55.50
30047;DHT22;16878;52.542;13.426;2022-07-29T10:49:28;25.10;55.80
30047;DHT22;16878;52.542;13.426;2022-07-29T10:54:38;25.40;54.70
30047;DHT22;16878;52.542;13.426;2022-07-29T11:05:10;26.00;53.70
30047;DHT22;16878;52.542;13.426;2022-07-29T11:07:38;26.00;54.10
30047;DHT22;16878;52.542;13.426;2022-07-29T11:15:12;25.80;53.80
30047;DHT22;16878;52.542;13.426;2022-07-29T11:20:44;25.60;54.50
30047;DHT22;16878;52.542;13.426;2022-07-29T11:23:27;25.60;54.10
30047;DHT22;16878;52.542;13.426;2022-07-29T11:34:26;26.20;54.60
30047;DHT22;16878;52.542;13.426;2022-07-29T11:40:27;26.50;54.80
30047;DHT22;16878;52.542;13.426;2022-07-29T11:47:50;26.60;55.00
30047;DHT22;16878;52.542;13.426;2022-07-29T11:50:34;26.70;54.80
30047;DHT22;16878;52.542;13.426;2022-07-29T11:53:11;26.70;55.50
30047;DHT22;16878;52.542;13.426;2022-07-29T11:55:39;26.80;55.60
30047;DHT22;16878;52.542;13.426;2022-07-29T11:58:05;26.60;55.10
30047;DHT22;16878;52.542;13.426;2022-07-29T12:00:38;26.40;55.50
30047;DHT22;16878;52.542;13.426;2022-07-29T12:03:06;26.20;55.90
30047;DHT22;16878;52.542;13.426;2022-07-29T12:05:36;26.10;56.40
30047;DHT22;16878;52.542;13.426;2022-07-29T12:10:35;25.90;57.80
30047;DHT22;16878;52.542;13.426;2022-07-29T12:13:01;25.90;58.10
30047;DHT22;16878;52.542;13.426;2022-07-29T12:15:27;25.90;58.20
30047;DHT22;16878;52.542;13.426;2022-07-29T12:17:52;25.80;58.60
30047;DHT22;16878;52.542;13.426;2022-07-29T12:20:23;25.90;59.00
30047;DHT22;16878;52.542;13.426;2022-07-29T12:22:50;26.00;59.30
30047;DHT22;16878;52.542;13.426;2022-07-29T12:25:19;26.10;59.70
30047;DHT22;16878;52.542;13.426;2022-07-29T12:27:45;26.00;60.00
30047;DHT22;16878;52.542;13.426;2022-07-29T12:30:13;26.00;60.10
30047;DHT22;16878;52.542;13.426;2022-07-29T12:32:46;26.00;60.50
30047;DHT22;16878;52.542;13.426;2022-07-29T12:35:18;26.10;61.00
30047;DHT22;16878;52.542;13.426;2022-07-29T12:37:46;26.00;61.30
30047;DHT22;16878;52.542;13.426;2022-07-29T12:40:17;25.90;61.50
30047;DHT22;16878;52.542;13.426;2022-07-29T12:43:06;25.80;61.90
30047;DHT22;16878;52.542;13.426;2022-07-29T12:45:33;25.90;61.60
30047;DHT22;16878;52.542;13.426;2022-07-29T12:47:58;26.20;60.60
30047;DHT22;16878;52.542;13.426;2022-07-29T12:50:24;26.30;60.30
30047;DHT22;16878;52.542;13.426;2022-07-29T12:52:50;26.40;60.70
30047;DHT22;16878;52.542;13.426;2022-07-29T12:55:46;26.40;60.20
30047;DHT22;16878;52.542;13.426;2022-07-29T13:01:10;26.10;60.80
30047;DHT22;16878;52.542;13.426;2022-07-29T13:03:58;26.10;61.00
30047;DHT22;16878;52.542;13.426;2022-07-29T13:06:43;26.20;60.50
30047;DHT22;16878;52.542;13.426;2022-07-29T13:09:19;26.40;60.20
30047;DHT22;16878;52.542;13.426;2022-07-29T13:11:52;26.40;60.10
30047;DHT22;16878;52.542;13.426;2022-07-29T13:14:39;26.30;60.60
30047;DHT22;16878;52.542;13.426;2022-07-29T13:17:11;26.70;59.90
30047;DHT22;16878;52.542;13.426;2022-07-29T13:19:44;26.80;59.30
30047;DHT22;16878;52.542;13.426;2022-07-29T13:22:12;26.80;59.40
30047;DHT22;16878;52.542;13.426;2022-07-29T13:24:54;26.60;59.40
30047;DHT22;16878;52.542;13.426;2022-07-29T13:27:25;26.70;59.90
30047;DHT22;16878;52.542;13.426;2022-07-29T13:29:53;26.70;59.30
30047;DHT22;16878;52.542;13.426;2022-07-29T13:32:22;26.90;59.40
30047;DHT22;16878;52.542;13.426;2022-07-29T13:34:48;27.10;58.60
30047;DHT22;16878;52.542;13.426;2022-07-29T13:37:14;27.10;58.70
30047;DHT22;16878;52.542;13.426;2022-07-29T13:39:40;27.10;58.80
30047;DHT22;16878;52.542;13.426;2022-07-29T13:42:07;27.00;58.80
30047;DHT22;16878;52.542;13.426;2022-07-29T13:44:34;26.70;59.50
30047;DHT22;16878;52.542;13.426;2022-07-29T13:46:59;26.60;60.10
30047;DHT22;16878;52.542;13.426;2022-07-29T13:49:26;26.60;59.90
30047;DHT22;16878;52.542;13.426;2022-07-29T13:51:52;26.60;60.10
30047;DHT22;16878;52.542;13.426;2022-07-29T13:54:18;26.60;59.90
30047;DHT22;16878;52.542;13.426;2022-07-29T13:56:44;26.50;59.80
30047;DHT22;16878;52.542;13.426;2022-07-29T13:59:09;26.50;60.40
30047;DHT22;16878;52.542;13.426;2022-07-29T14:01:36;26.40;59.90
30047;DHT22;16878;52.542;13.426;2022-07-29T14:04:02;26.30;59.90
30047;DHT22;16878;52.542;13.426;2022-07-29T14:06:28;26.30;60.00
30047;DHT22;16878;52.542;13.426;2022-07-29T14:08:53;26.20;60.10
30047;DHT22;16878;52.542;13.426;2022-07-29T14:11:19;26.20;60.20
30047;DHT22;16878;52.542;13.426;2022-07-29T14:13:45;26.40;60.00
30047;DHT22;16878;52.542;13.426;2022-07-29T14:16:10;26.60;60.00
30047;DHT22;16878;52.542;13.426;2022-07-29T14:18:36;26.80;60.10
30047;DHT22;16878;52.542;13.426;2022-07-29T14:21:02;26.90;59.40
30047;DHT22;16878;52.542;13.426;2022-07-29T14:23:28;26.90;59.40
30047;DHT22;16878;52.542;13.426;2022-07-29T14:25:54;26.90;59.20
30047;DHT22;16878;52.542;13.426;2022-07-29T14:28:19;26.80;59.30
30047;DHT22;16878;52.542;13.426;2022-07-29T14:30:45;27.10;59.90
30047;DHT22;16878;52.542;13.426;2022-07-29T14:33:11;27.10;59.50
30047;DHT22;16878;52.542;13.426;2022-07-29T14:35:37;27.00;59.20
30047;DHT22;16878;52.542;13.426;2022-07-29T14:38:03;27.20;59.40
30047;DHT22;16878;52.542;13.426;2022-07-29T14:40:28;27.10;59.00
30047;DHT22;16878;52.542;13.426;2022-07-29T14:42:54;27.00;59.10
30047;DHT22;16878;52.542;13.426;2022-07-29T14:45:20;27.00;59.20
30047;DHT22;16878;52.542;13.426;2022-07-29T14:47:45;27.00;59.20
30047;DHT22;16878;52.542;13.426;2022-07-29T14:50:11;27.10;58.30
30047;DHT22;16878;52.542;13.426;2022-07-29T14:52:37;27.20;58.20
30047;DHT22;16878;52.542;13.426;2022-07-29T14:55:04;27.20;58.30
30047;DHT22;16878;52.542;13.426;2022-07-29T14:57:30;27.20;58.00
30047;DHT22;16878;52.542;13.426;2022-07-29T14:59:55;27.50;56.70
30047;DHT22;16878;52.542;13.426;2022-07-29T15:02:21;27.60;56.30
30047;DHT22;16878;52.542;13.426;2022-07-29T15:04:47;27.80;56.90
30047;DHT22;16878;52.542;13.426;2022-07-29T15:07:14;27.90;56.70
30047;DHT22;16878;52.542;13.426;2022-07-29T15:09:40;27.80;56.60
30047;DHT22;16878;52.542;13.426;2022-07-29T15:12:06;27.70;57.10
30047;DHT22;16878;52.542;13.426;2022-07-29T15:14:32;27.50;56.80
30047;DHT22;16878;52.542;13.426;2022-07-29T15:16:57;27.50;57.20
30047;DHT22;16878;52.542;13.426;2022-07-29T15:19:23;27.50;56.80
30047;DHT22;16878;52.542;13.426;2022-07-29T15:21:49;27.60;56.80
30047;DHT22;16878;52.542;13.426;2022-07-29T15:24:17;27.50;56.90
30047;DHT22;16878;52.542;13.426;2022-07-29T15:26:42;27.40;56.50
30047;DHT22;16878;52.542;13.426;2022-07-29T15:29:08;27.30;56.40
30047;DHT22;16878;52.542;13.426;2022-07-29T15:31:34;27.10;56.50
30047;DHT22;16878;52.542;13.426;2022-07-29T15:33:59;27.10;56.40
30047;DHT22;16878;52.542;13.426;2022-07-29T15:36:25;27.10;56.80
30047;DHT22;16878;52.542;13.426;2022-07-29T15:38:54;27.10;57.00
30047;DHT22;16878;52.542;13.426;2022-07-29T15:41:20;26.90;57.10
30047;DHT22;16878;52.542;13.426;2022-07-29T15:43:47;26.80;57.20
30047;DHT22;16878;52.542;13.426;2022-07-29T15:46:14;26.80;57.30
30047;DHT22;16878;52.542;13.426;2022-07-29T15:48:59;26.60;57.20
30047;DHT22;16878;52.542;13.426;2022-07-29T15:51:25;26.60;57.50
30047;DHT22;16878;52.542;13.426;2022-07-29T15:53:50;26.50;57.90
30047;DHT22;16878;52.542;13.426;2022-07-29T15:56:16;26.50;57.70
30047;DHT22;16878;52.542;13.426;2022-07-29T15:58:42;26.50;57.70
30047;DHT22;16878;52.542;13.426;2022-07-29T16:01:08;26.40;57.90
30047;DHT22;16878;52.542;13.426;2022-07-29T16:03:34;26.30;58.20
30047;DHT22;16878;52.542;13.426;2022-07-29T16:05:59;26.30;58.30
30047;DHT22;16878;52.542;13.426;2022-07-29T16:08:25;26.40;57.90
30047;DHT22;16878;52.542;13.426;2022-07-29T16:10:51;26.40;57.80
30047;DHT22;16878;52.542;13.426;2022-07-29T16:13:16;26.40;58.00
30047;DHT22;16878;52.542;13.426;2022-07-29T16:15:42;26.40;57.90
30047;DHT22;16878;52.542;13.426;2022-07-29T16:18:08;26.60;57.50